createdAt,value
2022-09-25T00:00:20.617Z,12.9
2022-09-25T00:01:29.803Z,13
2022-09-25T00:02:38.972Z,13
2022-09-25T00:03:48.143Z,13
2022-09-25T00:04:57.320Z,13
2022-09-25T00:06:06.492Z,12.9
2022-09-25T00:07:15.702Z,12.9
2022-09-25T00:09:33.990Z,12.9
2022-09-25T00:10:43.168Z,12.9
2022-09-25T00:11:52.355Z,13
2022-09-25T00:13:00.536Z,13
2022-09-25T00:14:09.699Z,12.9
2022-09-25T00:15:18.881Z,13
2022-09-25T00:16:28.051Z,12.9
2022-09-25T00:17:37.229Z,12.9
2022-09-25T00:18:46.411Z,12.8
2022-09-25T00:19:55.600Z,12.8
2022-09-25T00:21:04.737Z,12.9
2022-09-25T00:22:13.915Z,13
2022-09-25T00:23:23.091Z,13
2022-09-25T00:24:32.260Z,13
2022-09-25T00:25:41.426Z,13
2022-09-25T00:26:50.612Z,12.9
2022-09-25T00:27:58.829Z,12.8
2022-09-25T00:29:07.975Z,12.9
2022-09-25T00:30:17.128Z,12.9
2022-09-25T00:31:26.319Z,12.9
2022-09-25T00:32:35.478Z,13.1
2022-09-25T00:33:44.694Z,13.1
2022-09-25T00:34:53.827Z,13.2
2022-09-25T00:36:03.017Z,13
2022-09-25T00:37:12.173Z,12.9
2022-09-25T00:38:21.351Z,12.8
2022-09-25T00:39:29.540Z,12.9
2022-09-25T00:40:38.758Z,13
2022-09-25T00:41:47.992Z,13
2022-09-25T00:42:57.054Z,13
2022-09-25T00:44:06.219Z,13
2022-09-25T00:45:15.437Z,12.9
2022-09-25T00:46:24.572Z,12.8
2022-09-25T00:47:33.737Z,12.8
2022-09-25T00:48:42.925Z,12.8
2022-09-25T00:49:52.087Z,12.7
2022-09-25T00:51:01.266Z,12.7
2022-09-25T00:53:19.603Z,12.8
2022-09-25T00:54:28.787Z,13
2022-09-25T00:55:37.950Z,13
2022-09-25T00:57:55.315Z,12.8
2022-09-25T00:59:03.498Z,12.8
2022-09-25T01:00:11.691Z,12.8
2022-09-25T01:01:20.865Z,12.9
2022-09-25T01:02:29.067Z,12.9
2022-09-25T01:03:37.300Z,12.9
2022-09-25T01:04:46.420Z,12.8
2022-09-25T01:05:55.632Z,12.8
2022-09-25T01:07:04.770Z,12.8
2022-09-25T01:08:13.963Z,12.8
2022-09-25T01:09:23.112Z,12.9
2022-09-25T01:10:32.312Z,12.7
2022-09-25T01:11:41.480Z,12.7
2022-09-25T01:12:50.636Z,12.7
2022-09-25T01:13:59.833Z,12.7
2022-09-25T01:15:08.985Z,12.6
2022-09-25T01:16:18.192Z,12.5
2022-09-25T01:17:27.323Z,12.9
2022-09-25T01:18:35.510Z,12.8
2022-09-25T01:19:44.675Z,12.7
2022-09-25T01:20:53.862Z,12.6
2022-09-25T01:22:03.021Z,12.6
2022-09-25T01:23:12.198Z,12.6
2022-09-25T01:24:21.369Z,12.5
2022-09-25T01:25:30.554Z,12.6
2022-09-25T01:26:39.729Z,12.7
2022-09-25T01:27:48.961Z,12.7
2022-09-25T01:28:58.053Z,12.7
2022-09-25T01:30:07.264Z,12.8
2022-09-25T01:31:16.517Z,12.7
2022-09-25T01:32:25.573Z,12.5
2022-09-25T01:34:42.939Z,12.5
2022-09-25T01:35:52.115Z,12.5
2022-09-25T01:37:01.283Z,12.4
2022-09-25T01:39:19.623Z,12.5
2022-09-25T01:40:28.814Z,12.5
2022-09-25T01:41:38.025Z,12.6
2022-09-25T01:42:47.148Z,12.6
2022-09-25T01:43:56.348Z,12.7
2022-09-25T01:45:05.504Z,12.5
2022-09-25T01:46:14.670Z,12.5
2022-09-25T01:47:23.838Z,12.5
2022-09-25T01:48:32.028Z,12.5
2022-09-25T01:49:41.199Z,12.5
2022-09-25T01:50:50.382Z,12.4
2022-09-25T01:51:59.540Z,12.4
2022-09-25T01:53:08.721Z,12.3
2022-09-25T01:54:17.899Z,12.4
2022-09-25T01:55:27.065Z,12.4
2022-09-25T01:56:36.221Z,12.4
2022-09-25T01:57:45.403Z,12.5
2022-09-25T01:58:54.585Z,12.4
2022-09-25T02:00:03.761Z,12.4
2022-09-25T02:01:12.925Z,12.3
2022-09-25T02:03:31.288Z,12.2
2022-09-25T02:04:39.475Z,12.2
2022-09-25T02:05:48.620Z,12.2
2022-09-25T02:06:57.799Z,12.3
2022-09-25T02:08:06.966Z,12.3
2022-09-25T02:09:16.153Z,12.2
2022-09-25T02:10:25.309Z,12.2
2022-09-25T02:11:34.486Z,12.2
2022-09-25T02:12:43.688Z,12.4
2022-09-25T02:13:52.844Z,12.4
2022-09-25T02:15:02.027Z,12.3
2022-09-25T02:16:11.176Z,12.1
2022-09-25T02:17:20.362Z,12.1
2022-09-25T02:18:29.523Z,12.2
2022-09-25T02:19:37.716Z,12.1
2022-09-25T02:20:46.892Z,12
2022-09-25T02:21:56.075Z,12
2022-09-25T02:23:05.232Z,11.9
2022-09-25T02:24:14.405Z,11.9
2022-09-25T02:25:23.578Z,11.9
2022-09-25T02:26:32.766Z,12
2022-09-25T02:27:41.929Z,12
2022-09-25T02:28:51.119Z,11.9
2022-09-25T02:30:00.270Z,11.8
2022-09-25T02:31:09.447Z,11.9
2022-09-25T02:32:18.618Z,11.8
2022-09-25T02:33:27.783Z,11.9
2022-09-25T02:34:36.003Z,11.9
2022-09-25T02:35:45.151Z,12
2022-09-25T02:36:54.326Z,11.9
2022-09-25T02:38:03.495Z,11.9
2022-09-25T02:39:12.712Z,12
2022-09-25T02:40:21.841Z,12
2022-09-25T02:41:31.010Z,11.9
2022-09-25T02:42:40.174Z,11.9
2022-09-25T02:43:49.349Z,11.9
2022-09-25T02:44:58.539Z,11.9
2022-09-25T02:46:07.700Z,11.9
2022-09-25T02:47:16.902Z,11.9
2022-09-25T02:48:26.057Z,11.8
2022-09-25T02:49:35.214Z,11.7
2022-09-25T02:50:43.414Z,11.8
2022-09-25T02:51:52.581Z,11.8
2022-09-25T02:53:01.756Z,11.8
2022-09-25T02:55:20.105Z,12
2022-09-25T02:56:29.275Z,11.9
2022-09-25T02:57:38.445Z,11.8
2022-09-25T02:58:47.655Z,11.9
2022-09-25T02:59:56.789Z,11.8
2022-09-25T03:02:15.232Z,11.8
2022-09-25T03:03:24.355Z,11.6
2022-09-25T03:04:33.486Z,11.6
2022-09-25T03:05:41.789Z,11.5
2022-09-25T03:06:50.850Z,11.5
2022-09-25T03:08:00.060Z,11.5
2022-09-25T03:09:09.187Z,11.5
2022-09-25T03:10:18.368Z,11.6
2022-09-25T03:11:27.568Z,11.7
2022-09-25T03:12:36.704Z,11.5
2022-09-25T03:13:45.879Z,11.4
2022-09-25T03:16:04.230Z,11.4
2022-09-25T03:17:12.415Z,11.3
2022-09-25T03:18:20.594Z,11.4
2022-09-25T03:19:29.792Z,11.3
2022-09-25T03:20:38.951Z,11.4
2022-09-25T03:21:48.135Z,11.4
2022-09-25T03:22:57.289Z,11.3
2022-09-25T03:24:06.467Z,11.4
2022-09-25T03:25:15.650Z,11.4
2022-09-25T03:26:24.819Z,11.4
2022-09-25T03:27:34.010Z,11.3
2022-09-25T03:28:43.167Z,11.2
2022-09-25T03:29:51.354Z,11.3
2022-09-25T03:30:59.570Z,11.3
2022-09-25T03:32:08.715Z,11.3
2022-09-25T03:33:17.876Z,11.3
2022-09-25T03:34:27.087Z,11.4
2022-09-25T03:35:36.231Z,11.4
2022-09-25T03:36:45.399Z,11.4
2022-09-25T03:37:54.574Z,11.5
2022-09-25T03:39:03.753Z,11.3
2022-09-25T03:40:12.918Z,11.2
2022-09-25T03:41:22.092Z,11.1
2022-09-25T03:42:31.267Z,11.1
2022-09-25T03:43:40.440Z,11.1
2022-09-25T03:44:49.599Z,11
2022-09-25T03:45:57.816Z,11
2022-09-25T03:47:06.982Z,11
2022-09-25T03:49:25.316Z,10.9
2022-09-25T03:50:34.489Z,10.9
2022-09-25T03:51:43.677Z,10.9
2022-09-25T03:52:52.843Z,10.9
2022-09-25T03:54:02.000Z,10.8
2022-09-25T03:55:11.181Z,10.7
2022-09-25T03:56:20.347Z,10.8
2022-09-25T03:57:29.528Z,10.7
2022-09-25T03:58:38.686Z,10.7
2022-09-25T03:59:47.881Z,10.6
2022-09-25T04:00:56.109Z,10.6
2022-09-25T04:02:05.227Z,10.5
2022-09-25T04:04:23.596Z,10.4
2022-09-25T04:05:32.743Z,10.4
2022-09-25T04:06:41.928Z,10.3
2022-09-25T04:07:51.091Z,10.3
2022-09-25T04:10:09.436Z,10.2
2022-09-25T04:11:17.652Z,10.2
2022-09-25T04:12:25.818Z,10.2
2022-09-25T04:13:34.992Z,10.2
2022-09-25T04:14:44.171Z,10.2
2022-09-25T04:15:53.322Z,10.2
2022-09-25T04:17:02.494Z,10.2
2022-09-25T04:18:11.689Z,10.1
2022-09-25T04:19:20.859Z,10.1
2022-09-25T04:20:30.025Z,10
2022-09-25T04:21:39.190Z,9.9
2022-09-25T04:22:48.361Z,9.9
2022-09-25T04:23:56.562Z,9.9
2022-09-25T04:25:04.751Z,9.9
2022-09-25T04:26:13.949Z,9.9
2022-09-25T04:27:23.130Z,9.8
2022-09-25T04:28:32.291Z,9.8
2022-09-25T04:29:41.463Z,9.8
2022-09-25T04:30:49.652Z,9.7
2022-09-25T04:31:58.839Z,9.7
2022-09-25T04:33:08.004Z,9.7
2022-09-25T04:34:17.179Z,9.7
2022-09-25T04:35:26.356Z,9.7
2022-09-25T04:36:35.535Z,9.6
2022-09-25T04:37:44.741Z,9.6
2022-09-25T04:38:53.871Z,9.6
2022-09-25T04:40:03.031Z,9.6
2022-09-25T04:41:12.215Z,9.6
2022-09-25T04:42:21.394Z,9.6
2022-09-25T04:43:30.569Z,9.5
2022-09-25T04:44:39.740Z,9.6
2022-09-25T04:45:47.918Z,9.5
2022-09-25T04:46:57.095Z,9.4
2022-09-25T04:48:05.289Z,9.4
2022-09-25T04:49:13.487Z,9.3
2022-09-25T04:51:30.865Z,9.3
2022-09-25T04:52:39.077Z,9.3
2022-09-25T04:53:47.233Z,9.3
2022-09-25T04:54:56.420Z,9.3
2022-09-25T04:56:05.585Z,9.3
2022-09-25T04:57:14.747Z,9.3
2022-09-25T04:58:23.928Z,9.3
2022-09-25T04:59:33.089Z,9.4
2022-09-25T05:00:42.259Z,9.4
2022-09-25T05:01:51.456Z,9.4
2022-09-25T05:03:00.631Z,9.4
2022-09-25T05:05:18.988Z,9.5
2022-09-25T05:06:28.220Z,9.4
2022-09-25T05:07:37.303Z,9.4
2022-09-25T05:08:45.575Z,9.4
2022-09-25T05:09:54.659Z,9.5
2022-09-25T05:11:03.831Z,9.5
2022-09-25T05:12:13.005Z,9.4
2022-09-25T05:13:22.236Z,9.4
2022-09-25T05:14:31.354Z,9.3
2022-09-25T05:16:49.692Z,9.5
2022-09-25T05:17:58.916Z,9.4
2022-09-25T05:19:08.050Z,9.5
2022-09-25T05:20:17.220Z,9.5
2022-09-25T05:21:26.394Z,9.5
2022-09-25T05:22:35.560Z,9.6
2022-09-25T05:23:43.740Z,9.6
2022-09-25T05:24:52.915Z,9.5
2022-09-25T05:26:02.100Z,9.5
2022-09-25T05:27:11.262Z,9.5
2022-09-25T05:29:29.606Z,9.3
2022-09-25T05:30:38.783Z,9.3
2022-09-25T05:31:47.961Z,9.4
2022-09-25T05:32:57.112Z,9.5
2022-09-25T05:34:06.295Z,9.5
2022-09-25T05:35:15.510Z,9.6
2022-09-25T05:36:24.642Z,9.5
2022-09-25T05:37:33.827Z,9.4
2022-09-25T05:38:42.065Z,9.3
2022-09-25T05:39:51.167Z,9.3
2022-09-25T05:41:00.348Z,9.5
2022-09-25T05:42:09.521Z,9.5
2022-09-25T05:43:18.689Z,9.4
2022-09-25T05:44:27.860Z,9.4
2022-09-25T05:45:37.032Z,9.3
2022-09-25T05:46:46.245Z,9.3
2022-09-25T05:47:55.391Z,9.4
2022-09-25T05:49:04.559Z,9.6
2022-09-25T05:50:13.730Z,9.5
2022-09-25T05:51:22.918Z,9.5
2022-09-25T05:52:32.081Z,9.5
2022-09-25T05:54:49.428Z,9.4
2022-09-25T05:55:58.618Z,9.7
2022-09-25T05:57:07.770Z,9.7
2022-09-25T05:58:16.951Z,9.6
2022-09-25T05:59:26.155Z,9.6
2022-09-25T06:00:35.339Z,9.7
2022-09-25T06:01:44.473Z,9.7
2022-09-25T06:02:53.654Z,9.9
2022-09-25T06:04:02.816Z,10.2
2022-09-25T06:05:11.991Z,10.4
2022-09-25T06:06:21.166Z,10.5
2022-09-25T06:07:30.329Z,10.7
2022-09-25T06:08:38.528Z,10.9
2022-09-25T06:09:47.689Z,10.7
2022-09-25T06:10:56.882Z,10.8
2022-09-25T06:12:06.043Z,10.9
2022-09-25T06:13:15.207Z,11.1
2022-09-25T06:14:24.391Z,11.2
2022-09-25T06:15:33.669Z,11.4
2022-09-25T06:16:42.718Z,11.5
2022-09-25T06:17:51.893Z,11.4
2022-09-25T06:19:01.087Z,11.3
2022-09-25T06:20:10.246Z,11.4
2022-09-25T06:21:19.413Z,11.4
2022-09-25T06:23:37.762Z,11.6
2022-09-25T06:24:45.943Z,11.6
2022-09-25T06:25:55.123Z,11.9
2022-09-25T06:27:04.301Z,12
2022-09-25T06:28:13.470Z,12.2
2022-09-25T06:29:22.644Z,12.3
2022-09-25T06:30:31.823Z,12.4
2022-09-25T06:31:40.990Z,12.5
2022-09-25T06:32:50.198Z,12.3
2022-09-25T06:33:59.331Z,12.3
2022-09-25T06:35:08.548Z,12.4
2022-09-25T06:36:17.679Z,12.2
2022-09-25T06:37:26.908Z,12.2
2022-09-25T06:38:36.041Z,12.3
2022-09-25T06:39:44.221Z,12.4
2022-09-25T06:40:53.377Z,12.6
2022-09-25T06:42:02.552Z,13.1
2022-09-25T06:43:11.723Z,13.4
2022-09-25T06:44:20.895Z,13.6
2022-09-25T06:45:30.071Z,13.8
2022-09-25T06:46:39.243Z,14.1
2022-09-25T06:47:48.503Z,13.4
2022-09-25T06:48:57.590Z,13.8
2022-09-25T06:50:06.754Z,14.1
2022-09-25T06:51:15.983Z,14
2022-09-25T06:52:25.137Z,14.1
2022-09-25T06:53:34.268Z,14.2
2022-09-25T06:54:42.461Z,13.9
2022-09-25T06:55:51.647Z,14.2
2022-09-25T06:57:00.847Z,14
2022-09-25T06:59:19.169Z,14.6
2022-09-25T07:00:28.334Z,14.2
2022-09-25T07:01:37.499Z,14.5
2022-09-25T07:02:46.666Z,14.8
2022-09-25T07:03:55.835Z,14.5
2022-09-25T07:05:05.023Z,14
2022-09-25T07:06:14.182Z,14.3
2022-09-25T07:07:23.378Z,14.4
2022-09-25T07:08:32.522Z,14.7
2022-09-25T07:09:40.732Z,14.5
2022-09-25T07:10:49.889Z,14.7
2022-09-25T07:11:59.114Z,14.9
2022-09-25T07:13:08.249Z,14.5
2022-09-25T07:14:17.401Z,14.2
2022-09-25T07:15:26.609Z,14.2
2022-09-25T07:16:35.744Z,13.9
2022-09-25T07:17:44.921Z,14
2022-09-25T07:18:54.126Z,13.8
2022-09-25T07:20:03.268Z,13.7
2022-09-25T07:21:12.494Z,14
2022-09-25T07:22:21.615Z,13.8
2022-09-25T07:23:30.824Z,14
2022-09-25T07:24:39.009Z,14.2
2022-09-25T07:25:48.167Z,13.9
2022-09-25T07:26:57.313Z,13.9
2022-09-25T07:28:06.492Z,14.4
2022-09-25T07:29:15.660Z,13.9
2022-09-25T07:30:24.879Z,13.8
2022-09-25T07:31:34.072Z,14
2022-09-25T07:32:43.174Z,14.6
2022-09-25T07:33:52.358Z,15.1
2022-09-25T07:35:01.528Z,14.4
2022-09-25T07:36:10.695Z,14.5
2022-09-25T07:37:19.864Z,14.4
2022-09-25T07:38:29.073Z,14.1
2022-09-25T07:39:37.240Z,14.3
2022-09-25T07:40:46.403Z,14.9
2022-09-25T07:41:55.617Z,14.8
2022-09-25T07:43:04.742Z,14.7
2022-09-25T07:44:13.909Z,14.5
2022-09-25T07:45:23.099Z,14.3
2022-09-25T07:46:32.275Z,14.2
2022-09-25T07:47:41.437Z,14.3
2022-09-25T07:48:50.613Z,14.6
2022-09-25T07:49:59.802Z,14.7
2022-09-25T07:51:08.952Z,14.8
2022-09-25T07:52:18.130Z,15.3
2022-09-25T07:53:27.294Z,15.1
2022-09-25T07:54:36.451Z,15.5
2022-09-25T07:55:44.681Z,15.6
2022-09-25T07:56:53.827Z,15.1
2022-09-25T07:58:02.993Z,15.1
2022-09-25T07:59:12.159Z,14.6
2022-09-25T08:00:21.329Z,14.5
2022-09-25T08:01:30.633Z,14.6
2022-09-25T08:02:39.673Z,14.6
2022-09-25T08:03:48.927Z,14.5
2022-09-25T08:04:58.014Z,14.8
2022-09-25T08:06:07.197Z,14.8
2022-09-25T08:07:16.407Z,14.9
2022-09-25T08:08:25.547Z,14.8
2022-09-25T08:09:34.728Z,15.1
2022-09-25T08:10:42.898Z,15.6
2022-09-25T08:11:52.071Z,15.9
2022-09-25T08:13:01.242Z,15.7
2022-09-25T08:14:10.428Z,15.7
2022-09-25T08:15:19.578Z,15.9
2022-09-25T08:16:28.763Z,15.4
2022-09-25T08:17:37.925Z,15.1
2022-09-25T08:18:47.110Z,15.4
2022-09-25T08:19:56.276Z,15.3
2022-09-25T08:21:05.449Z,15.5
2022-09-25T08:22:13.645Z,15.4
2022-09-25T08:23:22.809Z,15.6
2022-09-25T08:24:31.988Z,15.4
2022-09-25T08:25:41.179Z,15.3
2022-09-25T08:26:50.355Z,15.7
2022-09-25T08:27:59.492Z,15.2
2022-09-25T08:29:08.691Z,15.2
2022-09-25T08:30:17.853Z,15.5
2022-09-25T08:31:27.011Z,15.3
2022-09-25T08:32:36.193Z,15.2
2022-09-25T08:33:45.392Z,15.2
2022-09-25T08:34:54.533Z,14.8
2022-09-25T08:36:03.705Z,15.2
2022-09-25T08:37:11.892Z,15.6
2022-09-25T08:38:21.059Z,15.5
2022-09-25T08:39:30.242Z,15.1
2022-09-25T08:40:39.408Z,15
2022-09-25T08:41:48.603Z,15
2022-09-25T08:42:57.820Z,15.1
2022-09-25T08:44:06.933Z,15.5
2022-09-25T08:45:16.096Z,15.3
2022-09-25T08:46:25.277Z,15.7
2022-09-25T08:47:34.464Z,16.1
2022-09-25T08:48:43.777Z,16.2
2022-09-25T08:49:52.917Z,16.3
2022-09-25T08:51:02.069Z,16.1
2022-09-25T08:52:10.304Z,16.6
2022-09-25T08:53:19.448Z,16.8
2022-09-25T08:54:28.674Z,17.9
2022-09-25T08:56:46.977Z,15.1
2022-09-25T08:57:56.105Z,14.9
2022-09-25T08:59:05.285Z,14.9
2022-09-25T09:00:14.389Z,15.2
2022-09-25T09:01:23.521Z,15.5
2022-09-25T09:02:32.760Z,15.8
2022-09-25T09:03:41.909Z,16.2
2022-09-25T09:04:51.035Z,15.6
2022-09-25T09:06:00.207Z,15.1
2022-09-25T09:07:08.434Z,15.1
2022-09-25T09:08:17.566Z,15.6
2022-09-25T09:09:26.740Z,15.4
2022-09-25T09:10:35.915Z,15.2
2022-09-25T09:11:45.234Z,15.5
2022-09-25T09:12:54.259Z,15.5
2022-09-25T09:14:03.574Z,15.3
2022-09-25T09:15:12.748Z,15.9
2022-09-25T09:16:21.901Z,16.8
2022-09-25T09:17:31.056Z,17.5
2022-09-25T09:18:40.258Z,17
2022-09-25T09:19:49.371Z,16.4
2022-09-25T09:20:58.602Z,16.2
2022-09-25T09:22:06.801Z,16.5
2022-09-25T09:23:15.978Z,16.4
2022-09-25T09:24:25.151Z,17.3
2022-09-25T09:25:34.212Z,17.6
2022-09-25T09:26:43.338Z,17.4
2022-09-25T09:27:52.663Z,17.3
2022-09-25T09:29:01.842Z,17.7
2022-09-25T09:30:11.018Z,17.3
2022-09-25T09:31:20.112Z,16.9
2022-09-25T09:32:29.342Z,16.6
2022-09-25T09:33:38.518Z,16.4
2022-09-25T09:34:47.564Z,16.8
2022-09-25T09:35:56.855Z,16.7
2022-09-25T09:37:05.041Z,17.4
2022-09-25T09:38:14.225Z,17.5
2022-09-25T09:39:23.345Z,17.5
2022-09-25T09:40:32.528Z,17.6
2022-09-25T09:41:41.700Z,17.9
2022-09-25T09:42:50.870Z,18.2
2022-09-25T09:43:59.946Z,18.2
2022-09-25T09:45:09.218Z,17.6
2022-09-25T09:46:18.281Z,16.5
2022-09-25T09:47:27.497Z,15.4
2022-09-25T09:48:36.664Z,15.1
2022-09-25T09:49:45.863Z,15
2022-09-25T09:50:54.988Z,15.1
2022-09-25T09:52:03.190Z,15.3
2022-09-25T09:53:12.349Z,16.3
2022-09-25T09:54:21.649Z,16.7
2022-09-25T09:55:30.808Z,17
2022-09-25T09:56:39.874Z,17.1
2022-09-25T09:57:49.034Z,17.6
2022-09-25T09:58:58.244Z,17.1
2022-09-25T10:00:07.378Z,17.5
2022-09-25T10:01:16.520Z,17.1
2022-09-25T10:02:25.696Z,17.2
2022-09-25T10:03:35.053Z,17.3
2022-09-25T10:05:53.386Z,17.5
2022-09-25T10:07:01.584Z,18
2022-09-25T10:08:10.609Z,18
2022-09-25T10:09:19.909Z,17.7
2022-09-25T10:10:28.927Z,17.4
2022-09-25T10:11:38.247Z,17
2022-09-25T10:12:47.383Z,17.1
2022-09-25T10:13:56.550Z,17.8
2022-09-25T10:15:05.722Z,17.4
2022-09-25T10:16:14.839Z,17
2022-09-25T10:17:23.956Z,17.2
2022-09-25T10:18:33.185Z,17
2022-09-25T10:19:42.343Z,17.2
2022-09-25T10:20:51.498Z,17.5
2022-09-25T10:21:59.681Z,16.4
2022-09-25T10:23:08.867Z,15.8
2022-09-25T10:24:18.137Z,15.4
2022-09-25T10:25:27.178Z,15.2
2022-09-25T10:26:36.362Z,15.2
2022-09-25T10:27:45.528Z,15.2
2022-09-25T10:28:54.726Z,15
2022-09-25T10:30:03.876Z,15
2022-09-25T10:31:13.034Z,15.1
2022-09-25T10:32:22.308Z,15.2
2022-09-25T10:33:31.393Z,15.2
2022-09-25T10:34:40.712Z,16.9
2022-09-25T10:35:49.880Z,18.6
2022-09-25T10:36:57.912Z,18.6
2022-09-25T10:38:07.214Z,18.7
2022-09-25T10:39:16.262Z,18.4
2022-09-25T10:40:25.542Z,18.1
2022-09-25T10:41:34.628Z,18
2022-09-25T10:42:43.869Z,17.8
2022-09-25T10:43:53.054Z,16.8
2022-09-25T10:45:02.239Z,16.4
2022-09-25T10:46:11.390Z,16.1
2022-09-25T10:47:20.615Z,16
2022-09-25T10:48:29.815Z,17
2022-09-25T10:49:38.980Z,17.4
2022-09-25T10:50:48.157Z,17.7
2022-09-25T10:51:56.320Z,17.8
2022-09-25T10:53:05.488Z,18.4
2022-09-25T10:54:14.526Z,18.1
2022-09-25T10:55:23.858Z,17.7
2022-09-25T10:56:33.022Z,17.8
2022-09-25T10:57:42.184Z,17.4
2022-09-25T10:58:51.356Z,17.6
2022-09-25T11:00:00.457Z,16.4
2022-09-25T11:01:09.726Z,16.2
2022-09-25T11:02:18.870Z,16.3
2022-09-25T11:03:28.036Z,16.2
2022-09-25T11:04:37.058Z,16.2
2022-09-25T11:05:46.409Z,16.3
2022-09-25T11:06:54.559Z,17.3
2022-09-25T11:08:03.762Z,18
2022-09-25T11:09:12.760Z,18.9
2022-09-25T11:10:22.115Z,20.1
2022-09-25T11:11:31.122Z,20.2
2022-09-25T11:12:40.441Z,20.6
2022-09-25T11:13:49.628Z,21.4
2022-09-25T11:14:58.707Z,21.4
2022-09-25T11:16:07.808Z,21.6
2022-09-25T11:17:16.972Z,21.4
2022-09-25T11:18:26.290Z,21.2
2022-09-25T11:19:35.313Z,20.9
2022-09-25T11:20:44.645Z,21.4
2022-09-25T11:21:52.808Z,21.9
2022-09-25T11:23:01.983Z,21.9
2022-09-25T11:24:11.116Z,21.4
2022-09-25T11:25:20.389Z,20.6
2022-09-25T11:26:29.434Z,20
2022-09-25T11:27:38.542Z,19.3
2022-09-25T11:28:47.712Z,18.6
2022-09-25T11:29:57.022Z,18.6
2022-09-25T11:31:06.152Z,18.4
2022-09-25T11:32:15.240Z,18.3
2022-09-25T11:33:24.398Z,17.9
2022-09-25T11:34:33.583Z,18.5
2022-09-25T11:35:42.758Z,18.1
2022-09-25T11:36:50.952Z,18
2022-09-25T11:38:00.113Z,18.3
2022-09-25T11:39:09.275Z,17.3
2022-09-25T11:40:18.455Z,16.8
2022-09-25T11:41:26.641Z,16.6
2022-09-25T11:42:34.824Z,16.4
2022-09-25T11:43:44.000Z,16.4
2022-09-25T11:44:53.164Z,18
2022-09-25T11:46:02.334Z,19.4
2022-09-25T11:47:11.504Z,20.6
2022-09-25T11:48:20.691Z,20.8
2022-09-25T11:49:29.860Z,20.4
2022-09-25T11:50:39.029Z,21.1
2022-09-25T11:51:48.190Z,20.9
2022-09-25T11:52:57.366Z,20.1
2022-09-25T11:54:06.542Z,20
2022-09-25T11:55:14.739Z,20.2
2022-09-25T11:56:22.918Z,19.2
2022-09-25T11:57:32.091Z,18.9
2022-09-25T11:58:41.268Z,17.7
2022-09-25T12:00:59.615Z,16.5
2022-09-25T12:02:08.799Z,16.8
2022-09-25T12:03:17.967Z,17.9
2022-09-25T12:04:27.129Z,18.6
2022-09-25T12:05:36.313Z,18.8
2022-09-25T12:06:45.484Z,19.5
2022-09-25T12:07:54.658Z,20.7
2022-09-25T12:09:03.828Z,21.4
2022-09-25T12:10:13.001Z,21.7
2022-09-25T12:11:21.178Z,21.4
2022-09-25T12:12:30.354Z,20.7
2022-09-25T12:13:39.535Z,20.6
2022-09-25T12:14:47.727Z,21.2
2022-09-25T12:15:56.899Z,19.8
2022-09-25T12:17:06.067Z,19.2
2022-09-25T12:18:15.237Z,19.2
2022-09-25T12:19:24.406Z,19.4
2022-09-25T12:20:33.583Z,19.6
2022-09-25T12:21:42.764Z,20.9
2022-09-25T12:22:51.923Z,20.6
2022-09-25T12:24:01.094Z,20.3
2022-09-25T12:25:10.273Z,21
2022-09-25T12:26:19.447Z,21
2022-09-25T12:27:28.622Z,21.8
2022-09-25T12:28:37.790Z,21.8
2022-09-25T12:29:45.970Z,21.9
2022-09-25T12:30:55.140Z,21.7
2022-09-25T12:32:04.312Z,21.5
2022-09-25T12:33:13.488Z,21.2
2022-09-25T12:34:22.677Z,19.7
2022-09-25T12:35:31.823Z,19.8
2022-09-25T12:36:41.002Z,19.7
2022-09-25T12:37:50.180Z,18.9
2022-09-25T12:38:59.356Z,19.1
2022-09-25T12:40:08.525Z,19.5
2022-09-25T12:41:17.687Z,19.3
2022-09-25T12:42:26.867Z,19.6
2022-09-25T12:43:36.046Z,20.2
2022-09-25T12:44:44.226Z,21.2
2022-09-25T12:45:53.414Z,21.7
2022-09-25T12:47:02.574Z,22.3
2022-09-25T12:48:11.749Z,22.1
2022-09-25T12:49:20.924Z,20.3
2022-09-25T12:50:30.088Z,20.2
2022-09-25T12:51:39.266Z,20.7
2022-09-25T12:52:48.435Z,19.9
2022-09-25T12:53:57.615Z,19.8
2022-09-25T12:55:06.772Z,19.9
2022-09-25T12:56:15.956Z,18.9
2022-09-25T12:57:25.123Z,18.7
2022-09-25T12:58:34.290Z,18.6
2022-09-25T12:59:42.485Z,18
2022-09-25T13:00:51.649Z,17.9
2022-09-25T13:02:00.818Z,17.8
2022-09-25T13:03:09.993Z,17.8
2022-09-25T13:04:19.165Z,18.1
2022-09-25T13:05:28.338Z,18.3
2022-09-25T13:06:37.508Z,19.5
2022-09-25T13:07:46.680Z,19.5
2022-09-25T13:08:55.867Z,19.5
2022-09-25T13:10:05.024Z,18.9
2022-09-25T13:11:14.201Z,18.7
2022-09-25T13:12:23.377Z,18.3
2022-09-25T13:13:32.547Z,18
2022-09-25T13:14:40.729Z,17.6
2022-09-25T13:15:49.901Z,17.6
2022-09-25T13:16:59.128Z,17.5
2022-09-25T13:18:08.252Z,17.2
2022-09-25T13:19:17.421Z,17.1
2022-09-25T13:20:26.594Z,17.1
2022-09-25T13:21:35.763Z,17.1
2022-09-25T13:22:44.947Z,17.1
2022-09-25T13:23:54.111Z,17
2022-09-25T13:25:03.284Z,17
2022-09-25T13:26:12.447Z,17
2022-09-25T13:27:21.621Z,17.1
2022-09-25T13:28:30.819Z,17.2
2022-09-25T13:29:38.998Z,17.2
2022-09-25T13:30:48.159Z,17.2
2022-09-25T13:31:57.327Z,17.1
2022-09-25T13:33:06.510Z,17.2
2022-09-25T13:34:15.685Z,17.2
2022-09-25T13:35:24.841Z,17.2
2022-09-25T13:37:43.195Z,17.9
2022-09-25T13:38:52.364Z,18.2
2022-09-25T13:40:01.544Z,18.2
2022-09-25T13:41:10.704Z,19.1
2022-09-25T13:42:19.878Z,20.2
2022-09-25T13:43:29.049Z,20.6
2022-09-25T13:44:37.244Z,20.7
2022-09-25T13:45:46.403Z,21
2022-09-25T13:46:55.578Z,21.7
2022-09-25T13:48:04.752Z,21.3
2022-09-25T13:49:13.924Z,20.9
2022-09-25T13:50:23.098Z,20.3
2022-09-25T13:51:32.267Z,20.6
2022-09-25T13:52:41.441Z,19.9
2022-09-25T13:53:50.629Z,19.9
2022-09-25T13:54:59.791Z,19.7
2022-09-25T13:56:08.962Z,19.9
2022-09-25T13:57:18.195Z,20
2022-09-25T13:58:27.312Z,20.8
2022-09-25T13:59:35.492Z,21.3
2022-09-25T14:00:44.780Z,21.1
2022-09-25T14:01:53.830Z,21.4
2022-09-25T14:03:03.064Z,20.5
2022-09-25T14:04:12.188Z,20.4
2022-09-25T14:05:21.352Z,21.2
2022-09-25T14:06:30.529Z,21.3
2022-09-25T14:07:39.712Z,20.5
2022-09-25T14:09:58.060Z,20.8
2022-09-25T14:11:07.219Z,21.1
2022-09-25T14:12:16.391Z,20.9
2022-09-25T14:13:25.564Z,20.6
2022-09-25T14:14:33.748Z,20.3
2022-09-25T14:15:42.932Z,20.4
2022-09-25T14:16:52.081Z,20
2022-09-25T14:18:01.276Z,19.5
2022-09-25T14:19:10.425Z,19.9
2022-09-25T14:20:19.604Z,20.4
2022-09-25T14:21:28.780Z,20.8
2022-09-25T14:22:37.959Z,21
2022-09-25T14:23:47.148Z,21.3
2022-09-25T14:24:56.298Z,21.2
2022-09-25T14:26:05.463Z,20.7
2022-09-25T14:27:14.649Z,20.3
2022-09-25T14:28:23.812Z,20.8
2022-09-25T14:29:32.002Z,20.6
2022-09-25T14:30:41.175Z,21.2
2022-09-25T14:31:50.340Z,21.2
2022-09-25T14:32:59.518Z,21
2022-09-25T14:34:08.686Z,21.6
2022-09-25T14:35:17.871Z,21.7
2022-09-25T14:36:27.192Z,21
2022-09-25T14:37:36.202Z,21.1
2022-09-25T14:38:45.550Z,20.1
2022-09-25T14:39:54.703Z,19.7
2022-09-25T14:41:03.871Z,19.3
2022-09-25T14:42:13.051Z,19.4
2022-09-25T14:43:22.202Z,19.5
2022-09-25T14:44:30.261Z,18.9
2022-09-25T14:45:39.426Z,19
2022-09-25T14:46:48.696Z,20
2022-09-25T14:47:57.780Z,19.9
2022-09-25T14:49:06.948Z,19.1
2022-09-25T14:50:16.115Z,19
2022-09-25T14:51:25.298Z,19.6
2022-09-25T14:52:34.477Z,20.2
2022-09-25T14:53:43.630Z,20.2
2022-09-25T14:54:51.900Z,20.8
2022-09-25T14:56:00.077Z,20.9
2022-09-25T14:57:09.252Z,20
2022-09-25T14:58:18.382Z,20.3
2022-09-25T14:59:27.527Z,20.8
2022-09-25T15:00:36.816Z,20.8
2022-09-25T15:01:45.903Z,20.7
2022-09-25T15:02:55.128Z,21
2022-09-25T15:04:04.364Z,20.1
2022-09-25T15:05:12.493Z,19
2022-09-25T15:06:20.712Z,18.9
2022-09-25T15:07:29.921Z,19.4
2022-09-25T15:08:38.942Z,19.2
2022-09-25T15:09:48.188Z,19.9
2022-09-25T15:10:57.307Z,18.5
2022-09-25T15:13:15.706Z,19
2022-09-25T15:14:24.916Z,19
2022-09-25T15:15:34.115Z,19.4
2022-09-25T15:17:52.320Z,19.5
2022-09-25T15:19:01.627Z,19.6
2022-09-25T15:20:09.776Z,19.6
2022-09-25T15:21:17.927Z,19.5
2022-09-25T15:22:27.049Z,19
2022-09-25T15:23:36.326Z,19
2022-09-25T15:24:45.526Z,19.2
2022-09-25T15:25:54.629Z,19.2
2022-09-25T15:27:03.842Z,19.3
2022-09-25T15:28:12.977Z,19.4
2022-09-25T15:29:22.086Z,18.9
2022-09-25T15:30:31.356Z,18.9
2022-09-25T15:31:40.462Z,19
2022-09-25T15:32:49.656Z,18.2
2022-09-25T15:33:57.883Z,17.7
2022-09-25T15:35:05.990Z,17.5
2022-09-25T15:36:15.151Z,17.2
2022-09-25T15:37:24.327Z,16.9
2022-09-25T15:38:33.550Z,17.4
2022-09-25T15:39:42.759Z,18
2022-09-25T15:40:51.870Z,18.2
2022-09-25T15:42:01.035Z,18
2022-09-25T15:43:10.268Z,17.8
2022-09-25T15:44:19.355Z,17.9
2022-09-25T15:45:28.531Z,17
2022-09-25T15:46:37.723Z,16.7
2022-09-25T15:47:46.949Z,16.6
2022-09-25T15:48:56.172Z,16.6
2022-09-25T15:50:04.232Z,16.6
2022-09-25T15:51:13.453Z,16.2
2022-09-25T15:52:22.615Z,16.4
2022-09-25T15:53:31.763Z,16.2
2022-09-25T15:54:41.058Z,16.1
2022-09-25T15:55:50.204Z,16.1
2022-09-25T15:56:59.361Z,16.1
2022-09-25T15:58:07.583Z,16
2022-09-25T15:59:15.746Z,15.9